ABY436 LFBO-LFPG
Flight info
| Callsign | ABY436 |
|---|---|
| Flight time | 0h 57m |
| Altitude | 30000 |
| Route | FISTO7B FISTO DCT POI DCT PEPAX UT182 KEPER KEPER9E |
| Aircraft | A320/M-VGDW/C |
Departure
| Time | 2026-05-04 20:04 |
|---|---|
| Airport | Toulouse-Blagnac Airport (LFBO) |
Arrival
| Time | 2026-05-04 21:01 |
|---|---|
| Airport | Charles de Gaulle International Airport (LFPG) |
| Time | Latitude | Longitude | Altitude | Speed | Heading |
|---|---|---|---|---|---|
| 2026-05-04 19:44 | 43.62198 | 1.37790 | 486 ft | 0 kts | 142° |
| 2026-05-04 19:57 | 43.62201 | 1.37787 | 487 ft | 2 kts | 142° |
| 2026-05-04 19:58 | 43.62214 | 1.37773 | 483 ft | 2 kts | 142° |
| 2026-05-04 19:58 | 43.62228 | 1.37758 | 486 ft | 2 kts | 142° |
| 2026-05-04 19:58 | 43.62243 | 1.37750 | 485 ft | 2 kts | 210° |
| 2026-05-04 19:58 | 43.62248 | 1.37754 | 486 ft | 0 kts | 233° |
| 2026-05-04 20:01 | 43.62241 | 1.37742 | 479 ft | 5 kts | 232° |
| 2026-05-04 20:01 | 43.62210 | 1.37693 | 491 ft | 7 kts | 223° |
| 2026-05-04 20:02 | 43.62165 | 1.37661 | 485 ft | 7 kts | 208° |
| 2026-05-04 20:02 | 43.62135 | 1.37623 | 489 ft | 5 kts | 230° |
| 2026-05-04 20:02 | 43.62116 | 1.37586 | 493 ft | 5 kts | 235° |
| 2026-05-04 20:02 | 43.62087 | 1.37518 | 490 ft | 12 kts | 259° |
| 2026-05-04 20:03 | 43.62151 | 1.37413 | 490 ft | 22 kts | 322° |
| 2026-05-04 20:03 | 43.62455 | 1.37095 | 489 ft | 91 kts | 323° |
| 2026-05-04 20:03 | 43.63130 | 1.36393 | 492 ft | 149 kts | 323° |
| 2026-05-04 20:03 | 43.63993 | 1.35510 | 1064 ft | 154 kts | 321° |
| 2026-05-04 20:04 | 43.64857 | 1.34596 | 1746 ft | 162 kts | 319° |
| 2026-05-04 20:04 | 43.65799 | 1.33557 | 2131 ft | 184 kts | 319° |
| 2026-05-04 20:04 | 43.66867 | 1.32368 | 2543 ft | 209 kts | 319° |
| 2026-05-04 20:04 | 43.68066 | 1.31034 | 3050 ft | 233 kts | 320° |
| 2026-05-04 20:05 | 43.69376 | 1.29581 | 3778 ft | 247 kts | 320° |
| 2026-05-04 20:05 | 43.70730 | 1.28078 | 4731 ft | 252 kts | 320° |
| 2026-05-04 20:05 | 43.72210 | 1.26749 | 5631 ft | 259 kts | 338° |
| 2026-05-04 20:05 | 43.73955 | 1.26103 | 6541 ft | 266 kts | 344° |
| 2026-05-04 20:06 | 43.75772 | 1.25512 | 7425 ft | 271 kts | 344° |
| 2026-05-04 20:06 | 43.77649 | 1.25052 | 8329 ft | 279 kts | 355° |
| 2026-05-04 20:06 | 43.79610 | 1.24982 | 9189 ft | 285 kts | 356° |
| 2026-05-04 20:06 | 43.81615 | 1.24924 | 10031 ft | 291 kts | 356° |
| 2026-05-04 20:07 | 43.83661 | 1.24862 | 10780 ft | 300 kts | 356° |
| 2026-05-04 20:07 | 43.85829 | 1.24789 | 11099 ft | 323 kts | 356° |
| 2026-05-04 20:07 | 43.88139 | 1.24707 | 11584 ft | 339 kts | 356° |
| 2026-05-04 20:07 | 43.90520 | 1.24625 | 12306 ft | 345 kts | 356° |
| 2026-05-04 20:08 | 43.92946 | 1.24542 | 13053 ft | 352 kts | 356° |
| 2026-05-04 20:08 | 43.95411 | 1.24456 | 13791 ft | 358 kts | 356° |
| 2026-05-04 20:08 | 43.97923 | 1.24368 | 14440 ft | 363 kts | 356° |
| 2026-05-04 20:08 | 44.00465 | 1.24282 | 15077 ft | 368 kts | 357° |
| 2026-05-04 20:09 | 44.03048 | 1.24196 | 15709 ft | 374 kts | 357° |
| 2026-05-04 20:09 | 44.05672 | 1.24105 | 16305 ft | 380 kts | 357° |
| 2026-05-04 20:09 | 44.08335 | 1.24013 | 16932 ft | 386 kts | 357° |
| 2026-05-04 20:09 | 44.11041 | 1.23921 | 17562 ft | 391 kts | 357° |
| 2026-05-04 20:10 | 44.13779 | 1.23830 | 18197 ft | 397 kts | 358° |
| 2026-05-04 20:10 | 44.16560 | 1.23741 | 18742 ft | 402 kts | 358° |
| 2026-05-04 20:10 | 44.19366 | 1.23649 | 19306 ft | 406 kts | 358° |
| 2026-05-04 20:10 | 44.22200 | 1.23553 | 19873 ft | 410 kts | 358° |
| 2026-05-04 20:11 | 44.25069 | 1.23455 | 20421 ft | 414 kts | 358° |
| 2026-05-04 20:11 | 44.27924 | 1.23355 | 20968 ft | 418 kts | 358° |
| 2026-05-04 20:11 | 44.30840 | 1.23254 | 21509 ft | 421 kts | 359° |
| 2026-05-04 20:11 | 44.33785 | 1.23154 | 22040 ft | 425 kts | 359° |
| 2026-05-04 20:12 | 44.36755 | 1.23054 | 22560 ft | 429 kts | 359° |
| 2026-05-04 20:12 | 44.39758 | 1.22949 | 23080 ft | 433 kts | 359° |
| 2026-05-04 20:12 | 44.42786 | 1.22840 | 23575 ft | 437 kts | 359° |
| 2026-05-04 20:12 | 44.45835 | 1.22538 | 23979 ft | 441 kts | 351° |
| 2026-05-04 20:13 | 44.48839 | 1.21584 | 24387 ft | 444 kts | 342° |
| 2026-05-04 20:13 | 44.51801 | 1.20321 | 24793 ft | 447 kts | 342° |
| 2026-05-04 20:13 | 44.54790 | 1.19053 | 25211 ft | 450 kts | 342° |
| 2026-05-04 20:13 | 44.57796 | 1.17785 | 25625 ft | 453 kts | 342° |
| 2026-05-04 20:14 | 44.60827 | 1.16511 | 26042 ft | 456 kts | 342° |
| 2026-05-04 20:14 | 44.63872 | 1.15230 | 26445 ft | 459 kts | 342° |
| 2026-05-04 20:14 | 44.66943 | 1.13931 | 26865 ft | 462 kts | 341° |
| 2026-05-04 20:14 | 44.70033 | 1.12619 | 27213 ft | 466 kts | 341° |
| 2026-05-04 20:15 | 44.73144 | 1.11297 | 27597 ft | 469 kts | 341° |
| 2026-05-04 20:15 | 44.76275 | 1.09962 | 27978 ft | 472 kts | 341° |
| 2026-05-04 20:15 | 44.79426 | 1.08617 | 28359 ft | 475 kts | 341° |
| 2026-05-04 20:15 | 44.82594 | 1.07263 | 28735 ft | 478 kts | 341° |
| 2026-05-04 20:16 | 44.85789 | 1.05898 | 29098 ft | 480 kts | 341° |
| 2026-05-04 20:16 | 44.88998 | 1.04525 | 29470 ft | 483 kts | 341° |
| 2026-05-04 20:16 | 44.92222 | 1.03140 | 29836 ft | 486 kts | 341° |
| 2026-05-04 20:16 | 44.95463 | 1.01746 | 30158 ft | 488 kts | 341° |
| 2026-05-04 20:17 | 44.98721 | 1.00345 | 30462 ft | 490 kts | 341° |
| 2026-05-04 20:17 | 45.01999 | 0.98939 | 30744 ft | 493 kts | 341° |
| 2026-05-04 20:17 | 45.05290 | 0.97527 | 31033 ft | 495 kts | 341° |
| 2026-05-04 20:17 | 45.08593 | 0.96110 | 31330 ft | 497 kts | 341° |
| 2026-05-04 20:18 | 45.11916 | 0.94730 | 31632 ft | 499 kts | 346° |
| 2026-05-04 20:18 | 45.15316 | 0.94177 | 32030 ft | 499 kts | 1° |
| 2026-05-04 20:18 | 45.18772 | 0.94495 | 32458 ft | 497 kts | 5° |
| 2026-05-04 20:18 | 45.22216 | 0.94892 | 32844 ft | 497 kts | 5° |
| 2026-05-04 20:19 | 45.25658 | 0.95304 | 33228 ft | 496 kts | 5° |
| 2026-05-04 20:19 | 45.29096 | 0.95718 | 33638 ft | 495 kts | 5° |
| 2026-05-04 20:19 | 45.32529 | 0.96133 | 34030 ft | 494 kts | 5° |
| 2026-05-04 20:19 | 45.35953 | 0.96541 | 34382 ft | 493 kts | 4° |
| 2026-05-04 20:20 | 45.39365 | 0.96944 | 34735 ft | 492 kts | 4° |
| 2026-05-04 20:20 | 45.42777 | 0.97347 | 35064 ft | 491 kts | 4° |
| 2026-05-04 20:20 | 45.46177 | 0.97747 | 35400 ft | 490 kts | 4° |
| 2026-05-04 20:20 | 45.49568 | 0.98143 | 35733 ft | 488 kts | 4° |
| 2026-05-04 20:21 | 45.52955 | 0.98538 | 35908 ft | 488 kts | 4° |
| 2026-05-04 20:21 | 45.62991 | 0.99730 | 35940 ft | 481 kts | 4° |
| 2026-05-04 20:22 | 45.69658 | 1.00524 | 35937 ft | 480 kts | 4° |
| 2026-05-04 20:22 | 45.76323 | 1.01314 | 35946 ft | 480 kts | 3° |
| 2026-05-04 20:23 | 45.82983 | 1.02103 | 35946 ft | 480 kts | 4° |
| 2026-05-04 20:23 | 45.89643 | 1.02903 | 35949 ft | 480 kts | 4° |
| 2026-05-04 20:24 | 45.96262 | 1.03708 | 35949 ft | 480 kts | 4° |
| 2026-05-04 20:24 | 46.02919 | 1.04508 | 35946 ft | 480 kts | 4° |
| 2026-05-04 20:25 | 46.09571 | 1.05302 | 35939 ft | 480 kts | 4° |
| 2026-05-04 20:25 | 46.16226 | 1.06105 | 35939 ft | 480 kts | 4° |
| 2026-05-04 20:26 | 46.22927 | 1.06918 | 35942 ft | 480 kts | 4° |
| 2026-05-04 20:26 | 46.29540 | 1.07721 | 35940 ft | 480 kts | 4° |
| 2026-05-04 20:27 | 46.36201 | 1.08535 | 35940 ft | 480 kts | 4° |
| 2026-05-04 20:27 | 46.42852 | 1.09351 | 35943 ft | 480 kts | 4° |
| 2026-05-04 20:28 | 46.49497 | 1.10156 | 35941 ft | 479 kts | 4° |
| 2026-05-04 20:28 | 46.56140 | 1.10958 | 35938 ft | 479 kts | 3° |
| 2026-05-04 20:29 | 46.62870 | 1.11735 | 35930 ft | 492 kts | 3° |
| 2026-05-04 20:29 | 46.69750 | 1.12501 | 35928 ft | 498 kts | 3° |
| 2026-05-04 20:30 | 46.76665 | 1.13283 | 35931 ft | 499 kts | 3° |
| 2026-05-04 20:30 | 46.83591 | 1.14083 | 35928 ft | 499 kts | 3° |
| 2026-05-04 20:31 | 46.90520 | 1.14887 | 35927 ft | 499 kts | 3° |
| 2026-05-04 20:31 | 46.97400 | 1.15683 | 35932 ft | 499 kts | 3° |
| 2026-05-04 20:32 | 47.04313 | 1.16473 | 35928 ft | 493 kts | 3° |
| 2026-05-04 20:32 | 47.11072 | 1.17260 | 35931 ft | 480 kts | 3° |
| 2026-05-04 20:33 | 47.14355 | 1.17646 | 35658 ft | 480 kts | 3° |
| 2026-05-04 20:33 | 47.17691 | 1.18036 | 35011 ft | 481 kts | 3° |
| 2026-05-04 20:33 | 47.21019 | 1.18423 | 34397 ft | 480 kts | 3° |
| 2026-05-04 20:33 | 47.24354 | 1.18808 | 33754 ft | 480 kts | 3° |
| 2026-05-04 20:34 | 47.27677 | 1.19192 | 33115 ft | 478 kts | 4° |
| 2026-05-04 20:34 | 47.30988 | 1.19577 | 32496 ft | 476 kts | 4° |
| 2026-05-04 20:34 | 47.34280 | 1.19963 | 31886 ft | 474 kts | 4° |
| 2026-05-04 20:34 | 47.37559 | 1.20347 | 31281 ft | 472 kts | 4° |
| 2026-05-04 20:35 | 47.40824 | 1.20730 | 30711 ft | 469 kts | 4° |
| 2026-05-04 20:35 | 47.44068 | 1.21112 | 30171 ft | 466 kts | 4° |
| 2026-05-04 20:35 | 47.47293 | 1.21492 | 29575 ft | 462 kts | 5° |
| 2026-05-04 20:35 | 47.50481 | 1.21868 | 29053 ft | 457 kts | 5° |
| 2026-05-04 20:36 | 47.53631 | 1.22238 | 28530 ft | 452 kts | 4° |
| 2026-05-04 20:36 | 47.56750 | 1.22604 | 28019 ft | 446 kts | 4° |
| 2026-05-04 20:36 | 47.59786 | 1.22961 | 27536 ft | 441 kts | 4° |
| 2026-05-04 20:36 | 47.62861 | 1.23327 | 27041 ft | 435 kts | 4° |
| 2026-05-04 20:37 | 47.65863 | 1.23685 | 26576 ft | 430 kts | 4° |
| 2026-05-04 20:37 | 47.68788 | 1.24033 | 26118 ft | 425 kts | 4° |
| 2026-05-04 20:37 | 47.71717 | 1.24381 | 25650 ft | 420 kts | 4° |
| 2026-05-04 20:37 | 47.74616 | 1.24725 | 25186 ft | 415 kts | 4° |
| 2026-05-04 20:38 | 47.77477 | 1.25069 | 24710 ft | 411 kts | 4° |
| 2026-05-04 20:38 | 47.80315 | 1.25411 | 24235 ft | 407 kts | 4° |
| 2026-05-04 20:38 | 47.83124 | 1.25747 | 23762 ft | 403 kts | 4° |
| 2026-05-04 20:38 | 47.85907 | 1.26078 | 23233 ft | 400 kts | 4° |
| 2026-05-04 20:39 | 47.88663 | 1.26403 | 22728 ft | 395 kts | 4° |
| 2026-05-04 20:39 | 47.91381 | 1.26801 | 22322 ft | 389 kts | 11° |
| 2026-05-04 20:39 | 47.93981 | 1.27700 | 22042 ft | 380 kts | 13° |
| 2026-05-04 20:39 | 47.96538 | 1.28610 | 21781 ft | 376 kts | 13° |
| 2026-05-04 20:40 | 47.99075 | 1.29509 | 21520 ft | 373 kts | 13° |
| 2026-05-04 20:40 | 48.01583 | 1.30399 | 21155 ft | 369 kts | 13° |
| 2026-05-04 20:40 | 48.04073 | 1.31283 | 20680 ft | 367 kts | 13° |
| 2026-05-04 20:40 | 48.06555 | 1.32164 | 20205 ft | 365 kts | 13° |
| 2026-05-04 20:41 | 48.08987 | 1.33031 | 19740 ft | 364 kts | 13° |
| 2026-05-04 20:41 | 48.11446 | 1.33911 | 19272 ft | 363 kts | 13° |
| 2026-05-04 20:41 | 48.13899 | 1.34793 | 18806 ft | 362 kts | 14° |
| 2026-05-04 20:41 | 48.16340 | 1.35673 | 18343 ft | 361 kts | 14° |
| 2026-05-04 20:42 | 48.18779 | 1.36549 | 17837 ft | 359 kts | 14° |
| 2026-05-04 20:42 | 48.21199 | 1.37419 | 17385 ft | 356 kts | 14° |
| 2026-05-04 20:42 | 48.23602 | 1.38286 | 16937 ft | 353 kts | 13° |
| 2026-05-04 20:42 | 48.25988 | 1.39146 | 16498 ft | 351 kts | 13° |
| 2026-05-04 20:43 | 48.28355 | 1.39996 | 16055 ft | 349 kts | 13° |
| 2026-05-04 20:43 | 48.30707 | 1.40843 | 15625 ft | 347 kts | 13° |
| 2026-05-04 20:43 | 48.33022 | 1.41682 | 15200 ft | 345 kts | 13° |
| 2026-05-04 20:43 | 48.35354 | 1.42528 | 14769 ft | 344 kts | 13° |
| 2026-05-04 20:44 | 48.37674 | 1.43369 | 14339 ft | 342 kts | 13° |
| 2026-05-04 20:44 | 48.39985 | 1.44208 | 13913 ft | 341 kts | 14° |
| 2026-05-04 20:44 | 48.42295 | 1.45047 | 13444 ft | 340 kts | 14° |
| 2026-05-04 20:44 | 48.44588 | 1.45880 | 13012 ft | 338 kts | 14° |
| 2026-05-04 20:45 | 48.46860 | 1.46704 | 12609 ft | 334 kts | 14° |
| 2026-05-04 20:45 | 48.49062 | 1.47502 | 12275 ft | 319 kts | 14° |
| 2026-05-04 20:45 | 48.51199 | 1.48271 | 11695 ft | 313 kts | 14° |
| 2026-05-04 20:45 | 48.53308 | 1.49020 | 11136 ft | 309 kts | 13° |
| 2026-05-04 20:46 | 48.55397 | 1.49761 | 10953 ft | 309 kts | 14° |
| 2026-05-04 20:46 | 48.57472 | 1.50494 | 10946 ft | 301 kts | 14° |
| 2026-05-04 20:46 | 48.59497 | 1.51206 | 10955 ft | 298 kts | 14° |
| 2026-05-04 20:46 | 48.61504 | 1.51917 | 10954 ft | 296 kts | 13° |
| 2026-05-04 20:47 | 48.63508 | 1.52637 | 10946 ft | 296 kts | 16° |
| 2026-05-04 20:47 | 48.65420 | 1.53771 | 10953 ft | 295 kts | 26° |
| 2026-05-04 20:47 | 48.67257 | 1.55148 | 10950 ft | 294 kts | 27° |
| 2026-05-04 20:47 | 48.69084 | 1.56547 | 10953 ft | 294 kts | 28° |
| 2026-05-04 20:48 | 48.70907 | 1.57947 | 10947 ft | 294 kts | 28° |
| 2026-05-04 20:48 | 48.72723 | 1.59375 | 10953 ft | 294 kts | 30° |
| 2026-05-04 20:48 | 48.74468 | 1.60981 | 10955 ft | 294 kts | 33° |
| 2026-05-04 20:48 | 48.75605 | 1.62091 | 10959 ft | 294 kts | 34° |
| 2026-05-04 20:49 | 48.77858 | 1.64377 | 10741 ft | 293 kts | 41° |
| 2026-05-04 20:49 | 48.79163 | 1.66721 | 10499 ft | 290 kts | 60° |
| 2026-05-04 20:49 | 48.80179 | 1.69358 | 10250 ft | 289 kts | 60° |
| 2026-05-04 20:49 | 48.81180 | 1.71988 | 10009 ft | 287 kts | 61° |
| 2026-05-04 20:50 | 48.82171 | 1.74607 | 9777 ft | 286 kts | 61° |
| 2026-05-04 20:50 | 48.82839 | 1.76376 | 9597 ft | 286 kts | 61° |
| 2026-05-04 20:50 | 48.84144 | 1.79827 | 9175 ft | 283 kts | 61° |
| 2026-05-04 20:50 | 48.84791 | 1.81540 | 8942 ft | 282 kts | 61° |
| 2026-05-04 20:51 | 48.85775 | 1.84151 | 8651 ft | 280 kts | 61° |
| 2026-05-04 20:51 | 48.86738 | 1.86714 | 8372 ft | 279 kts | 61° |
| 2026-05-04 20:51 | 48.87683 | 1.89234 | 8082 ft | 277 kts | 61° |
| 2026-05-04 20:51 | 48.88635 | 1.91772 | 7804 ft | 276 kts | 61° |
| 2026-05-04 20:52 | 48.89585 | 1.94299 | 7512 ft | 274 kts | 61° |
| 2026-05-04 20:52 | 48.90525 | 1.96800 | 7121 ft | 272 kts | 61° |
| 2026-05-04 20:52 | 48.91443 | 1.99254 | 6644 ft | 265 kts | 61° |
| 2026-05-04 20:52 | 48.92354 | 2.01689 | 6027 ft | 264 kts | 61° |
| 2026-05-04 20:53 | 48.93256 | 2.04105 | 5711 ft | 258 kts | 61° |
| 2026-05-04 20:53 | 48.94119 | 2.06421 | 5582 ft | 246 kts | 61° |
| 2026-05-04 20:53 | 48.94943 | 2.08627 | 5454 ft | 234 kts | 61° |
| 2026-05-04 20:53 | 48.95731 | 2.10737 | 5330 ft | 225 kts | 61° |
| 2026-05-04 20:54 | 48.96491 | 2.12778 | 5188 ft | 218 kts | 62° |
| 2026-05-04 20:54 | 48.96944 | 2.14904 | 5065 ft | 205 kts | 82° |
| 2026-05-04 20:54 | 48.97094 | 2.17004 | 4999 ft | 195 kts | 84° |
| 2026-05-04 20:54 | 48.97206 | 2.18991 | 5018 ft | 180 kts | 85° |
| 2026-05-04 20:55 | 48.97309 | 2.20824 | 4880 ft | 171 kts | 85° |
| 2026-05-04 20:55 | 48.97410 | 2.22606 | 4651 ft | 166 kts | 85° |
| 2026-05-04 20:55 | 48.97506 | 2.24295 | 4440 ft | 156 kts | 85° |
| 2026-05-04 20:55 | 48.97597 | 2.25893 | 4230 ft | 148 kts | 85° |
| 2026-05-04 20:56 | 48.97683 | 2.27419 | 4033 ft | 146 kts | 84° |
| 2026-05-04 20:56 | 48.97769 | 2.28951 | 3864 ft | 145 kts | 84° |
| 2026-05-04 20:56 | 48.97855 | 2.30476 | 3698 ft | 144 kts | 84° |
| 2026-05-04 20:56 | 48.97940 | 2.31994 | 3544 ft | 144 kts | 84° |
| 2026-05-04 20:57 | 48.98025 | 2.33513 | 3380 ft | 144 kts | 84° |
| 2026-05-04 20:57 | 48.98109 | 2.35021 | 3190 ft | 143 kts | 84° |
| 2026-05-04 20:57 | 48.98193 | 2.36524 | 2976 ft | 142 kts | 84° |
| 2026-05-04 20:57 | 48.98276 | 2.38023 | 2751 ft | 142 kts | 84° |
| 2026-05-04 20:58 | 48.98359 | 2.39518 | 2530 ft | 142 kts | 84° |
| 2026-05-04 20:58 | 48.98442 | 2.41009 | 2337 ft | 141 kts | 83° |
| 2026-05-04 20:58 | 48.98524 | 2.42502 | 2158 ft | 142 kts | 84° |
| 2026-05-04 20:58 | 48.98606 | 2.43994 | 1989 ft | 141 kts | 84° |
| 2026-05-04 20:59 | 48.98688 | 2.45484 | 1795 ft | 141 kts | 84° |
| 2026-05-04 20:59 | 48.98770 | 2.46971 | 1606 ft | 141 kts | 84° |
| 2026-05-04 20:59 | 48.98851 | 2.48454 | 1415 ft | 141 kts | 84° |
| 2026-05-04 20:59 | 48.98928 | 2.49867 | 1253 ft | 141 kts | 84° |
| 2026-05-04 21:00 | 48.99015 | 2.51353 | 1098 ft | 141 kts | 83° |
| 2026-05-04 21:00 | 48.99088 | 2.52836 | 898 ft | 144 kts | 85° |
| 2026-05-04 21:00 | 48.99169 | 2.54366 | 695 ft | 144 kts | 84° |
| 2026-05-04 21:00 | 48.99254 | 2.55893 | 487 ft | 145 kts | 83° |
| 2026-05-04 21:01 | 48.99341 | 2.57419 | 367 ft | 137 kts | 86° |
| 2026-05-04 21:01 | 48.99405 | 2.58680 | 352 ft | 95 kts | 85° |
| 2026-05-04 21:01 | 48.99446 | 2.59463 | 352 ft | 51 kts | 85° |
| 2026-05-04 21:01 | 48.99477 | 2.59807 | 358 ft | 23 kts | 69° |
| 2026-05-04 21:02 | 48.99560 | 2.59966 | 360 ft | 14 kts | 27° |
| 2026-05-04 21:02 | 48.99662 | 2.59974 | 360 ft | 16 kts | 355° |
| 2026-05-04 21:02 | 48.99704 | 2.59969 | 354 ft | 0 kts | 356° |
| 2026-05-04 21:04 | 48.99705 | 2.59969 | 354 ft | 2 kts | 356° |
| 2026-05-04 21:04 | 48.99746 | 2.59965 | 354 ft | 10 kts | 356° |
| 2026-05-04 21:05 | 48.99824 | 2.59956 | 357 ft | 12 kts | 358° |
| 2026-05-04 21:05 | 48.99901 | 2.60004 | 363 ft | 13 kts | 52° |
| 2026-05-04 21:05 | 48.99979 | 2.60069 | 354 ft | 14 kts | 348° |
| 2026-05-04 21:05 | 49.00063 | 2.59995 | 360 ft | 5 kts | 343° |
| 2026-05-04 21:06 | 49.00106 | 2.59989 | 354 ft | 10 kts | 358° |
| 2026-05-04 21:06 | 49.00189 | 2.59968 | 357 ft | 13 kts | 328° |
| 2026-05-04 21:06 | 49.00198 | 2.59830 | 358 ft | 15 kts | 261° |
| 2026-05-04 21:06 | 49.00187 | 2.59670 | 354 ft | 16 kts | 283° |
| 2026-05-04 21:07 | 49.00291 | 2.59614 | 361 ft | 18 kts | 355° |
| 2026-05-04 21:07 | 49.00380 | 2.59604 | 354 ft | 10 kts | 355° |
| 2026-05-04 21:07 | 49.00462 | 2.59593 | 354 ft | 17 kts | 355° |
| 2026-05-04 21:07 | 49.00587 | 2.59578 | 354 ft | 19 kts | 355° |
| 2026-05-04 21:08 | 49.00721 | 2.59563 | 354 ft | 20 kts | 355° |
| 2026-05-04 21:08 | 49.00847 | 2.59544 | 354 ft | 13 kts | 354° |
| 2026-05-04 21:08 | 49.00946 | 2.59534 | 354 ft | 15 kts | 353° |
| 2026-05-04 21:08 | 49.01002 | 2.59415 | 358 ft | 17 kts | 268° |
| 2026-05-04 21:09 | 49.00993 | 2.59230 | 354 ft | 19 kts | 267° |
| 2026-05-04 21:09 | 49.00971 | 2.59027 | 354 ft | 20 kts | 255° |
| 2026-05-04 21:09 | 49.00945 | 2.58808 | 360 ft | 22 kts | 266° |
| 2026-05-04 21:09 | 49.00932 | 2.58569 | 354 ft | 23 kts | 265° |
| 2026-05-04 21:10 | 49.00919 | 2.58313 | 354 ft | 25 kts | 266° |
| 2026-05-04 21:10 | 49.00904 | 2.58046 | 355 ft | 26 kts | 268° |
| 2026-05-04 21:10 | 49.00890 | 2.57769 | 358 ft | 27 kts | 265° |
| 2026-05-04 21:10 | 49.00875 | 2.57480 | 360 ft | 28 kts | 265° |
| 2026-05-04 21:11 | 49.00856 | 2.57180 | 357 ft | 29 kts | 266° |
| 2026-05-04 21:11 | 49.00848 | 2.57009 | 354 ft | 12 kts | 265° |
| 2026-05-04 21:11 | 49.00801 | 2.56921 | 357 ft | 13 kts | 185° |
| 2026-05-04 21:11 | 49.00709 | 2.56933 | 354 ft | 11 kts | 178° |
| 2026-05-04 21:12 | 49.00650 | 2.56881 | 359 ft | 6 kts | 246° |
| 2026-05-04 21:12 | 49.00645 | 2.56822 | 354 ft | 6 kts | 265° |
| 2026-05-04 21:12 | 49.00643 | 2.56781 | 356 ft | 0 kts | 268° |
| 2026-05-04 21:12 | 49.00643 | 2.56749 | 354 ft | 7 kts | 266° |
| 2026-05-04 21:13 | 49.00637 | 2.56637 | 359 ft | 14 kts | 265° |
| 2026-05-04 21:13 | 49.00628 | 2.56481 | 354 ft | 12 kts | 265° |
| 2026-05-04 21:13 | 49.00621 | 2.56337 | 358 ft | 15 kts | 266° |
| 2026-05-04 21:13 | 49.00581 | 2.56270 | 356 ft | 9 kts | 196° |
| 2026-05-04 21:14 | 49.00539 | 2.56254 | 361 ft | 4 kts | 193° |
| 2026-05-04 21:14 | 49.00534 | 2.56252 | 361 ft | 0 kts | 193° |